Tom Car — XCAJ3 — position and weather

sailwx.info

Track history (hours):
 
Tides and Currents Weather Stations Pressure Air Temp Water Temp Dewpoint Dewpoint Depression Visibility Wind Speed Wind Dir Waves Ship Positions

Tom Car

Last reported at 2017-Sep-22 01:57 UTC. Time now 2017-Sep-22 20:49 UTC.
Position N 19°12' W 096°08'.

Length 10 m.

Type: Pilot. MMSI: 345030093.

Date/timePositionNaut miles runAvg speedWind from/ knotsBaromVisibWave heightAir tempDewpointWater temp
2017-Sep-22 01:57N 19°12' W 096°08'0 0.7
2017-Sep-22 01:30N 19°12' W 096°08'0 0.0
2017-Sep-22 01:00N 19°12' W 096°08'0 0.0
2017-Sep-22 00:27N 19°12' W 096°08'0 0.0
2017-Sep-22 00:00N 19°12' W 096°08'0 0.0
2017-Sep-21 23:28N 19°12' W 096°08'0 0.0
2017-Sep-21 23:00N 19°12' W 096°08'0 0.0
2017-Sep-21 22:30N 19°12' W 096°08'0 0.0
2017-Sep-21 22:00N 19°12' W 096°08'0 0.0
2017-Sep-21 21:30N 19°12' W 096°08'0 0.0
2017-Sep-21 20:57N 19°12' W 096°08'0 0.0
2017-Sep-21 20:27N 19°12' W 096°08'0 0.0
2017-Sep-21 20:00N 19°12' W 096°08'0 0.0
2017-Sep-21 19:30N 19°12' W 096°08'0 0.0
2017-Sep-21 18:57N 19°12' W 096°08'0 0.0
2017-Sep-21 18:30N 19°12' W 096°08'0 0.0
2017-Sep-21 18:00N 19°12' W 096°08'0 0.0
2017-Sep-21 17:30N 19°12' W 096°08'0 0.0
2017-Sep-21 17:00N 19°12' W 096°08'0 0.0
2017-Sep-21 16:30N 19°12' W 096°08'0 0.0
2017-Sep-21 16:00N 19°12' W 096°08'0 0.0
2017-Sep-21 15:30N 19°12' W 096°08'0 0.0
2017-Sep-21 15:00N 19°12' W 096°08'0 0.0
2017-Sep-21 14:30N 19°12' W 096°08'0 0.0
2017-Sep-21 14:01N 19°12' W 096°08'0 0.0
2017-Sep-21 13:30N 19°12' W 096°08'0 0.0
2017-Sep-21 13:00N 19°12' W 096°08'0 0.0
2017-Sep-21 12:30N 19°12' W 096°08'1 1.4
2017-Sep-21 11:58N 19°13' W 096°08'1 1.0
2017-Sep-21 11:29N 19°12' W 096°08'4 7.8
2017-Sep-21 11:00N 19°11' W 096°04'4 6.8
2017-Sep-21 10:28N 19°12' W 096°08'0 0.0
2017-Sep-21 09:58N 19°12' W 096°08'0 0.0
2017-Sep-21 09:28N 19°12' W 096°08'0 0.0
2017-Sep-21 08:58N 19°12' W 096°08'0 0.0
2017-Sep-21 08:28N 19°12' W 096°08'0 0.0
2017-Sep-21 07:58N 19°12' W 096°08'0 0.0
2017-Sep-21 07:28N 19°12' W 096°08'0 0.0
2017-Sep-21 06:46N 19°12' W 096°08'0 0.0
2017-Sep-21 06:28N 19°12' W 096°08'0 0.0
2017-Sep-21 05:58N 19°12' W 096°08'0 0.0
2017-Sep-21 05:25N 19°12' W 096°08'0 0.0
2017-Sep-21 04:58N 19°12' W 096°08'0 0.0
2017-Sep-21 04:28N 19°12' W 096°08'0 0.0
2017-Sep-21 03:58N 19°12' W 096°08'0 0.0
2017-Sep-21 03:28N 19°12' W 096°08'0 0.0
2017-Sep-21 02:58N 19°12' W 096°08'1 1.9
2017-Sep-21 02:29N 19°13' W 096°08'1 1.8
2017-Sep-21 01:59N 19°12' W 096°08'0 0.0
2017-Sep-21 01:29N 19°12' W 096°08'0 0.0
2017-Sep-21 00:56N 19°12' W 096°08'0 0.0
2017-Sep-21 00:26N 19°12' W 096°08'3 5.8
2017-Sep-21 00:00N 19°12' W 096°05'2 4.8
2017-Sep-20 23:30N 19°12' W 096°08'0 0.5
2017-Sep-20 23:00N 19°12' W 096°08'0 0.4
2017-Sep-20 22:30N 19°12' W 096°08'1 1.3
2017-Sep-20 22:00N 19°12' W 096°08'1 1.3
2017-Sep-20 21:30N 19°12' W 096°08'4 7.1
2017-Sep-20 21:00N 19°11' W 096°04'4 6.6
2017-Sep-20 20:28N 19°12' W 096°08'0 0.0
2017-Sep-20 19:58N 19°12' W 096°08'0 0.0
2017-Sep-20 19:25N 19°12' W 096°08'0 0.0
2017-Sep-20 18:58N 19°12' W 096°08'0 0.0
2017-Sep-20 18:30N 19°12' W 096°08'2 4.1
2017-Sep-20 18:00N 19°12' W 096°06'2 3.9
2017-Sep-20 17:30N 19°12' W 096°08'0 0.5
2017-Sep-20 16:58N 19°12' W 096°08'0 0.0
2017-Sep-20 16:28N 19°12' W 096°08'3 0.5
2017-Sep-20 10:04N 19°11' W 096°04'0 4.8
2017-Sep-20 10:00N 19°12' W 096°05'3 5.5
2017-Sep-20 09:28N 19°12' W 096°08'0 0.0
2017-Sep-20 08:58N 19°12' W 096°08'0 0.0
2017-Sep-20 08:28N 19°12' W 096°08'0 0.0
2017-Sep-20 07:58N 19°12' W 096°08'0 0.0
2017-Sep-20 07:28N 19°12' W 096°08'0 0.0
2017-Sep-20 07:01N 19°12' W 096°08'0 0.0
2017-Sep-20 06:31N 19°12' W 096°08'0 0.0
2017-Sep-20 06:01N 19°12' W 096°08'0 0.0
2017-Sep-20 05:28N 19°12' W 096°08'0 0.0
2017-Sep-20 04:58N 19°12' W 096°08'0 0.0
2017-Sep-20 04:25N 19°12' W 096°08'1 1.3
2017-Sep-20 04:00N 19°12' W 096°07'1 1.8
2017-Sep-20 03:30N 19°12' W 096°06'2 3.0
2017-Sep-20 03:00N 19°12' W 096°08'0 0.4
2017-Sep-20 02:27N 19°12' W 096°08'0 0.0
2017-Sep-20 01:54N 19°12' W 096°08'0 0.0
2017-Sep-20 01:30N 19°12' W 096°08'0 0.0
2017-Sep-20 01:00N 19°12' W 096°08'0 0.0
2017-Sep-20 00:30N 19°12' W 096°08'0 0.0
2017-Sep-20 00:00N 19°12' W 096°08'0 0.0
2017-Sep-19 23:30N 19°12' W 096°08'4 6.8
2017-Sep-19 22:59N 19°11' W 096°04'3 6.5
2017-Sep-19 22:30N 19°12' W 096°07'0 0.8
2017-Sep-19 21:59N 19°12' W 096°08'2 3.7
2017-Sep-19 21:30N 19°12' W 096°06'1 2.7
2017-Sep-19 21:00N 19°12' W 096°07'1 1.6
2017-Sep-19 20:30N 19°12' W 096°08'1 1.1
2017-Sep-19 19:59N 19°12' W 096°08'0 0.0
2017-Sep-19 19:29N 19°12' W 096°08'0 0.0
2017-Sep-19 18:59N 19°12' W 096°08'0 0.0
2017-Sep-19 18:29N 19°12' W 096°08'0 0.0
2017-Sep-19 17:59N 19°12' W 096°08'0 0.0
2017-Sep-19 17:29N 19°12' W 096°08'0 0.0
2017-Sep-19 16:59N 19°12' W 096°08'0 0.0
2017-Sep-19 16:29N 19°12' W 096°08'0 0.0
2017-Sep-19 15:53N 19°12' W 096°08'0 0.0
2017-Sep-19 15:29N 19°12' W 096°08'0 0.0
2017-Sep-19 14:59N 19°12' W 096°08'0 0.0
2017-Sep-19 14:29N 19°12' W 096°08'0 0.0
2017-Sep-19 13:59N 19°12' W 096°08'0 0.6
2017-Sep-19 13:29N 19°12' W 096°08'0 0.0
2017-Sep-19 12:59N 19°12' W 096°08'0 0.0
2017-Sep-19 12:29N 19°12' W 096°08'0 0.0
2017-Sep-19 11:53N 19°12' W 096°08'0 0.0
2017-Sep-19 11:29N 19°12' W 096°08'0 0.0
2017-Sep-19 10:59N 19°12' W 096°08'0 0.0
2017-Sep-19 10:29N 19°12' W 096°08'0 0.0
2017-Sep-19 09:59N 19°12' W 096°08'0 0.0
2017-Sep-19 09:29N 19°12' W 096°08'0 0.0
2017-Sep-19 08:59N 19°12' W 096°08'0 0.0
2017-Sep-19 08:29N 19°12' W 096°08'0 0.0
2017-Sep-19 07:59N 19°12' W 096°08'0 0.0
2017-Sep-19 07:29N 19°12' W 096°08'0 0.0
2017-Sep-19 06:59N 19°12' W 096°08'0 0.0
2017-Sep-19 06:29N 19°12' W 096°08'1 1.9
2017-Sep-19 06:00N 19°12' W 096°07'2 3.7
2017-Sep-19 05:30N 19°12' W 096°05'2 4.6
2017-Sep-19 04:58N 19°12' W 096°08'0 0.5
2017-Sep-19 04:30N 19°12' W 096°08'0 0.0
2017-Sep-19 04:00N 19°12' W 096°08'3 5.3
2017-Sep-19 03:30N 19°12' W 096°05'3 5.3
2017-Sep-19 03:00N 19°12' W 096°08'0 0.7
2017-Sep-19 02:28N 19°13' W 096°08'1 1.4
2017-Sep-19 01:58N 19°12' W 096°08'0 0.0
2017-Sep-19 01:28N 19°12' W 096°08'0 0.0
2017-Sep-19 00:58N 19°12' W 096°08'0 0.0
2017-Sep-19 00:29N 19°12' W 096°08'3 6.5
2017-Sep-19 00:00N 19°12' W 096°05'0 0.7
2017-Sep-18 23:29N 19°12' W 096°05'2 3.9
2017-Sep-18 23:00N 19°12' W 096°07'1 2.8
2017-Sep-18 22:30N 19°12' W 096°08'0 0.7
2017-Sep-18 21:59N 19°12' W 096°08'0 0.0
2017-Sep-18 21:29N 19°12' W 096°08'0 0.0
2017-Sep-18 20:59N 19°12' W 096°08'0 0.0
2017-Sep-18 20:29N 19°12' W 096°08'0 0.0
2017-Sep-18 19:59N 19°12' W 096°08'0 0.7
2017-Sep-18 19:30N 19°12' W 096°08'0 0.6
2017-Sep-18 19:00N 19°12' W 096°08'0 0.1
2017-Sep-18 18:31N 19°12' W 096°08'0 0.1
2017-Sep-18 17:59N 19°12' W 096°08'0 0.0
2017-Sep-18 17:29N 19°12' W 096°08'0 0.0
2017-Sep-18 16:59N 19°12' W 096°08'0 0.0
2017-Sep-18 16:29N 19°12' W 096°08'1 1.1
2017-Sep-18 15:59N 19°12' W 096°08'0 0.9
2017-Sep-18 15:30N 19°12' W 096°08'2 4.3
2017-Sep-18 15:00N 19°12' W 096°06'2 3.6
2017-Sep-18 14:27N 19°12' W 096°08'0 0.0
2017-Sep-18 14:00N 19°12' W 096°08'0 0.0
2017-Sep-18 13:30N 19°12' W 096°08'0 0.0
2017-Sep-18 12:57N 19°12' W 096°08'0 0.0
2017-Sep-18 12:30N 19°12' W 096°08'1 1.1
2017-Sep-18 12:00N 19°12' W 096°07'0 0.2
2017-Sep-18 11:30N 19°12' W 096°07'1 1.0
2017-Sep-18 10:58N 19°12' W 096°08'3 7.2
2017-Sep-18 10:30N 19°11' W 096°04'3 6.2
2017-Sep-18 09:59N 19°12' W 096°08'0 0.0
2017-Sep-18 09:29N 19°12' W 096°08'0 0.0
2017-Sep-18 08:56N 19°12' W 096°08'0 0.0
2017-Sep-18 08:26N 19°12' W 096°08'1 2.0
2017-Sep-18 07:56N 19°13' W 096°08'0 0.3
2017-Sep-18 07:28N 19°13' W 096°08'3 5.5
2017-Sep-18 06:58N 19°12' W 096°06'0 0.6
2017-Sep-18 06:30N 19°12' W 096°06'2 3.7
2017-Sep-18 06:00N 19°12' W 096°08'0 0.0
2017-Sep-18 05:30N 19°12' W 096°08'0 0.0
2017-Sep-18 04:58N 19°12' W 096°08'0 0.0
2017-Sep-18 04:25N 19°12' W 096°08'0 0.0
2017-Sep-18 03:52N 19°12' W 096°08'0 0.0
2017-Sep-18 03:28N 19°12' W 096°08'0 0.0
2017-Sep-18 02:58N 19°12' W 096°08'0 0.0
2017-Sep-18 02:28N 19°12' W 096°08'0 0.0
2017-Sep-18 01:58N 19°12' W 096°08'0 0.0
2017-Sep-18 01:28N 19°12' W 096°08'0 0.0
2017-Sep-18 00:58N 19°12' W 096°08'0 0.0
2017-Sep-18 00:28N 19°12' W 096°08'0 0.0
2017-Sep-17 23:58N 19°12' W 096°08'0 0.0
2017-Sep-17 23:28N 19°12' W 096°08'0 0.0
2017-Sep-17 22:55N 19°12' W 096°08'0 0.0
2017-Sep-17 22:28N 19°12' W 096°08'0 0.0
2017-Sep-17 21:58N 19°12' W 096°08'0 0.0
2017-Sep-17 21:28N 19°12' W 096°08'0 0.0
2017-Sep-17 20:55N 19°12' W 096°08'0 0.0
2017-Sep-17 20:25N 19°12' W 096°08'0 0.0
2017-Sep-17 19:58N 19°12' W 096°08'0 0.0
2017-Sep-17 19:28N 19°12' W 096°08'0 0.0
2017-Sep-17 18:58N 19°12' W 096°08'1 2.3
2017-Sep-17 18:31N 19°12' W 096°07'0 0.4
2017-Sep-17 18:00N 19°12' W 096°06'1 2.8
2017-Sep-17 17:29N 19°12' W 096°08'0 0.6
2017-Sep-17 17:00N 19°12' W 096°08'0 0.0
2017-Sep-17 16:30N 19°12' W 096°08'0 0.0
2017-Sep-17 16:00N 19°12' W 096°08'0 0.0
2017-Sep-17 15:30N 19°12' W 096°08'0 0.0
2017-Sep-17 14:59N 19°12' W 096°08'0 0.0
2017-Sep-17 14:29N 19°12' W 096°08'0 0.0
2017-Sep-17 13:59N 19°12' W 096°08'0 0.5
2017-Sep-17 13:28N 19°12' W 096°08'0 0.0
2017-Sep-17 12:58N 19°12' W 096°08'0 0.0
2017-Sep-17 12:28N 19°12' W 096°08'0 0.0
2017-Sep-17 11:55N 19°12' W 096°08'0 0.0
2017-Sep-17 11:28N 19°12' W 096°08'0 0.0
2017-Sep-17 10:55N 19°12' W 096°08'0 0.0
2017-Sep-17 10:28N 19°12' W 096°08'0 0.0
2017-Sep-17 09:58N 19°12' W 096°08'0 0.0
2017-Sep-17 09:28N 19°12' W 096°08'0 0.0
2017-Sep-17 08:58N 19°12' W 096°08'0 0.0
2017-Sep-17 08:28N 19°12' W 096°08'0 0.0
2017-Sep-17 07:58N 19°12' W 096°08'0 0.0
2017-Sep-17 07:25N 19°12' W 096°08'0 0.0
2017-Sep-17 06:58N 19°12' W 096°08'0 0.0
2017-Sep-17 06:28N 19°12' W 096°08'1 2.3
2017-Sep-17 06:00N 19°12' W 096°07'1 0.2
2017-Sep-16 23:57N 19°12' W 096°08'0 0.0
2017-Sep-16 23:30N 19°12' W 096°08'0 0.0
2017-Sep-16 23:00N 19°12' W 096°08'0 0.0
2017-Sep-16 22:30N 19°12' W 096°08'0 0.0
2017-Sep-16 21:57N 19°12' W 096°08'0 0.0
2017-Sep-16 21:30N 19°12' W 096°08'0 0.0
2017-Sep-16 21:00N 19°12' W 096°08'0 0.0
2017-Sep-16 20:30N 19°12' W 096°08'1 1.7
2017-Sep-16 20:00N 19°12' W 096°07'1 1.5
2017-Sep-16 19:28N 19°12' W 096°08'0 0.0
2017-Sep-16 18:55N 19°12' W 096°08'0 0.0
2017-Sep-16 18:28N 19°12' W 096°08'0 0.0
2017-Sep-16 17:58N 19°12' W 096°08'0 0.0
2017-Sep-16 17:28N 19°12' W 096°08'0 0.0
2017-Sep-16 16:58N 19°12' W 096°08'0 0.0
2017-Sep-16 16:28N 19°12' W 096°08'0 0.0
2017-Sep-16 15:58N 19°12' W 096°08'2 4.9
2017-Sep-16 15:29N 19°12' W 096°05'3 5.4
2017-Sep-16 15:00N 19°12' W 096°08'0 0.6
2017-Sep-16 14:28N 19°12' W 096°08'0 0.0
2017-Sep-16 13:58N 19°12' W 096°08'0 0.0
2017-Sep-16 13:28N 19°12' W 096°08'1 2.5
2017-Sep-16 13:00N 19°12' W 096°07'0 1.0
2017-Sep-16 12:30N 19°12' W 096°07'1 1.7
2017-Sep-16 11:59N 19°12' W 096°08'0 0.6
2017-Sep-16 11:29N 19°12' W 096°08'0 0.0
2017-Sep-16 10:59N 19°12' W 096°08'0 0.0
2017-Sep-16 10:26N 19°12' W 096°08'0 0.0
2017-Sep-16 09:56N 19°12' W 096°08'0 0.0
2017-Sep-16 09:29N 19°12' W 096°08'0 0.0
2017-Sep-16 08:59N 19°12' W 096°08'0 0.0
2017-Sep-16 08:29N 19°12' W 096°08'0 0.0
2017-Sep-16 07:59N 19°12' W 096°08'0 0.0
2017-Sep-16 07:26N 19°12' W 096°08'0 0.0
2017-Sep-16 06:59N 19°12' W 096°08'0 0.0
2017-Sep-16 06:29N 19°12' W 096°08'0 0.0
2017-Sep-16 05:59N 19°12' W 096°08'0 0.0
2017-Sep-16 05:23N 19°12' W 096°08'0 0.0
2017-Sep-16 05:00N 19°12' W 096°08'2 3.4
2017-Sep-16 04:29N 19°12' W 096°06'1 2.6
2017-Sep-16 03:54N 19°12' W 096°07'0 1.1
2017-Sep-16 03:30N 19°12' W 096°08'0 0.0
2017-Sep-16 03:00N 19°12' W 096°08'0 0.0
2017-Sep-16 02:30N 19°12' W 096°08'0 0.0
2017-Sep-16 02:00N 19°12' W 096°08'0 0.0
2017-Sep-16 01:30N 19°12' W 096°08'0 0.0
2017-Sep-16 01:00N 19°12' W 096°08'0 0.0
2017-Sep-16 00:30N 19°12' W 096°08'0 0.0
2017-Sep-15 23:58N 19°12' W 096°08'0 0.8
2017-Sep-15 23:30N 19°12' W 096°08'0 0.6
2017-Sep-15 22:58N 19°12' W 096°08'2 3.3
2017-Sep-15 22:30N 19°12' W 096°06'1 1.4
2017-Sep-15 21:59N 19°12' W 096°05'0 1.0
2017-Sep-15 21:30N 19°12' W 096°05'3 5.4
2017-Sep-15 21:00N 19°12' W 096°08'1 1.2
2017-Sep-15 20:29N 19°13' W 096°08'1 1.4
2017-Sep-15 19:59N 19°12' W 096°08'0 0.6
2017-Sep-15 19:27N 19°12' W 096°08'1 1.4
2017-Sep-15 18:58N 19°13' W 096°08'1 2.0
2017-Sep-15 18:30N 19°12' W 096°08'3 6.4
2017-Sep-15 18:00N 19°11' W 096°04'3 6.4
2017-Sep-15 17:30N 19°12' W 096°08'0 0.1
2017-Sep-15 16:58N 19°12' W 096°08'0 0.0
2017-Sep-15 16:30N 19°12' W 096°08'0 0.0
2017-Sep-15 16:00N 19°12' W 096°08'3 5.7
2017-Sep-15 15:30N 19°12' W 096°05'3 6.0
2017-Sep-15 15:00N 19°12' W 096°08'0 0.6
2017-Sep-15 14:26N 19°12' W 096°08'0 0.0
2017-Sep-15 13:59N 19°12' W 096°08'0 0.0
2017-Sep-15 13:29N 19°12' W 096°08'0 0.6
2017-Sep-15 12:59N 19°12' W 096°08'1 1.2
2017-Sep-15 12:28N 19°13' W 096°08'1 1.3
2017-Sep-15 11:57N 19°12' W 096°08'3 6.7
2017-Sep-15 11:30N 19°12' W 096°05'1 2.5
2017-Sep-15 11:00N 19°12' W 096°06'2 3.1
2017-Sep-15 10:30N 19°12' W 096°08'0 0.0
2017-Sep-15 10:00N 19°12' W 096°08'0 0.0
2017-Sep-15 09:27N 19°12' W 096°08'0 0.0
2017-Sep-15 09:00N 19°12' W 096°08'0 0.0
2017-Sep-15 08:27N 19°12' W 096°08'0 0.0
2017-Sep-15 08:00N 19°12' W 096°08'0 0.0
2017-Sep-15 07:27N 19°12' W 096°08'0 0.0
2017-Sep-15 07:00N 19°12' W 096°08'0 0.0
2017-Sep-15 06:30N 19°12' W 096°08'0 0.0
2017-Sep-15 05:54N 19°12' W 096°08'0 0.0
2017-Sep-15 05:27N 19°12' W 096°08'0 0.0
2017-Sep-15 05:00N 19°12' W 096°08'0 0.0
2017-Sep-15 04:30N 19°12' W 096°08'0 0.0
2017-Sep-15 03:57N 19°12' W 096°08'1 1.2
2017-Sep-15 03:28N 19°12' W 096°07'0 0.3
2017-Sep-15 03:00N 19°12' W 096°07'0 0.7
2017-Sep-15 02:30N 19°12' W 096°08'1 1.6
2017-Sep-15 02:00N 19°12' W 096°07'1 2.4
2017-Sep-15 01:30N 19°13' W 096°08'1 1.6
2017-Sep-15 01:00N 19°12' W 096°08'0 0.0
2017-Sep-15 00:30N 19°12' W 096°08'0 0.0
2017-Sep-15 00:00N 19°12' W 096°08'0 0.0
2017-Sep-14 23:30N 19°12' W 096°08'0 0.0
2017-Sep-14 23:00N 19°12' W 096°08'0 0.0
2017-Sep-14 22:30N 19°12' W 096°08'1 1.1
2017-Sep-14 21:55N 19°12' W 096°08'1 1.6
2017-Sep-14 21:30N 19°12' W 096°08'4 7.0
2017-Sep-14 21:00N 19°11' W 096°04'4 7.1
2017-Sep-14 20:28N 19°12' W 096°08'0 0.0
2017-Sep-14 19:58N 19°12' W 096°08'0 0.0
2017-Sep-14 19:28N 19°12' W 096°08'4 0.4
2017-Sep-14 09:56N 19°11' W 096°04'4 8.6
2017-Sep-14 09:29N 19°12' W 096°08'0 0.0
2017-Sep-14 08:53N 19°12' W 096°08'0 0.0
2017-Sep-14 08:29N 19°12' W 096°08'0 0.0
2017-Sep-14 07:56N 19°12' W 096°08'0 0.0
2017-Sep-14 07:29N 19°12' W 096°08'0 0.0
2017-Sep-14 06:56N 19°12' W 096°08'0 0.0
2017-Sep-14 06:29N 19°12' W 096°08'0 0.0
2017-Sep-14 05:59N 19°12' W 096°08'0 0.0
2017-Sep-14 05:26N 19°12' W 096°08'0 0.0
2017-Sep-14 04:59N 19°12' W 096°08'0 0.0
2017-Sep-14 04:26N 19°12' W 096°08'0 0.0
2017-Sep-14 03:56N 19°12' W 096°08'0 0.0
2017-Sep-14 03:23N 19°12' W 096°08'0 0.0
2017-Sep-14 02:59N 19°12' W 096°08'0 0.0
2017-Sep-14 02:29N 19°12' W 096°08'0 0.0
2017-Sep-14 01:59N 19°12' W 096°08'0 0.9
2017-Sep-14 01:30N 19°12' W 096°08'0 0.8
2017-Sep-14 00:58N 19°12' W 096°08'3 7.3
2017-Sep-14 00:30N 19°11' W 096°04'3 6.9
2017-Sep-14 00:00N 19°12' W 096°08'2 3.8
2017-Sep-13 23:30N 19°12' W 096°06'2 3.7
2017-Sep-13 23:00N 19°12' W 096°08'0 0.0
2017-Sep-13 22:27N 19°12' W 096°08'0 0.0
2017-Sep-13 22:00N 19°12' W 096°08'0 0.0
2017-Sep-13 21:30N 19°12' W 096°08'0 0.0
2017-Sep-13 21:00N 19°12' W 096°08'0 0.6
2017-Sep-13 20:28N 19°12' W 096°08'0 0.5
2017-Sep-13 19:54N 19°12' W 096°08'0 0.0
2017-Sep-13 19:30N 19°12' W 096°08'3 6.5
2017-Sep-13 19:00N 19°12' W 096°04'3 5.1
2017-Sep-13 18:30N 19°12' W 096°07'1 1.4
2017-Sep-13 17:58N 19°12' W 096°08'2 4.7
2017-Sep-13 17:30N 19°12' W 096°05'2 4.0
2017-Sep-13 16:58N 19°12' W 096°08'0 0.6
2017-Sep-13 16:30N 19°12' W 096°08'3 5.4
2017-Sep-13 15:58N 19°12' W 096°05'3 6.3
2017-Sep-13 15:30N 19°12' W 096°08'0 0.0
2017-Sep-13 15:00N 19°12' W 096°08'0 0.0
2017-Sep-13 14:29N 19°12' W 096°08'0 0.0
2017-Sep-13 13:59N 19°12' W 096°08'0 0.0
2017-Sep-13 13:29N 19°12' W 096°08'1 2.0
2017-Sep-13 13:00N 19°12' W 096°07'0 0.5
2017-Sep-13 12:29N 19°12' W 096°07'1 2.5
2017-Sep-13 12:00N 19°12' W 096°08'0 0.1
2017-Sep-13 11:25N 19°12' W 096°08'0 0.0
2017-Sep-13 10:58N 19°12' W 096°08'0 0.6
2017-Sep-13 10:28N 19°12' W 096°08'0 0.7
2017-Sep-13 09:59N 19°12' W 096°08'0 0.0
2017-Sep-13 09:29N 19°12' W 096°08'0 0.5
2017-Sep-13 08:53N 19°12' W 096°08'2 6.2
2017-Sep-13 08:30N 19°12' W 096°05'1 1.7
2017-Sep-13 08:00N 19°12' W 096°06'1 2.4
2017-Sep-13 07:25N 19°12' W 096°08'0 0.0
2017-Sep-13 06:55N 19°12' W 096°08'0 0.0
2017-Sep-13 06:28N 19°12' W 096°08'0 0.0
2017-Sep-13 05:58N 19°12' W 096°08'0 0.0
2017-Sep-13 05:28N 19°12' W 096°08'0 0.0
2017-Sep-13 04:55N 19°12' W 096°08'0 0.0
2017-Sep-13 04:25N 19°12' W 096°08'0 0.0
2017-Sep-13 03:55N 19°12' W 096°08'0 0.0
2017-Sep-13 03:22N 19°12' W 096°08'0 0.0
2017-Sep-13 02:58N 19°12' W 096°08'0 0.0
2017-Sep-13 02:28N 19°12' W 096°08'0 0.0
2017-Sep-13 01:58N 19°12' W 096°08'0 0.0
2017-Sep-13 01:22N 19°12' W 096°08'0 0.0
2017-Sep-13 00:58N 19°12' W 096°08'0 0.0
2017-Sep-13 00:28N 19°12' W 096°08'0 0.0
2017-Sep-12 23:58N 19°12' W 096°08'0 0.0
2017-Sep-12 23:28N 19°12' W 096°08'0 0.0
2017-Sep-12 22:58N 19°12' W 096°08'0 0.0
2017-Sep-12 22:28N 19°12' W 096°08'0 0.0
2017-Sep-12 21:58N 19°12' W 096°08'0 0.0
2017-Sep-12 21:28N 19°12' W 096°08'0 0.0
2017-Sep-12 20:58N 19°12' W 096°08'0 0.0
2017-Sep-12 20:28N 19°12' W 096°08'0 0.0
2017-Sep-12 19:59N 19°12' W 096°08'0 0.4
2017-Sep-12 19:19N 19°12' W 096°08'0 0.0
2017-Sep-12 18:58N 19°12' W 096°08'0 0.0
2017-Sep-12 18:28N 19°12' W 096°08'0 0.0
2017-Sep-12 17:58N 19°12' W 096°08'0 0.0
2017-Sep-12 17:24N 19°12' W 096°08'1 1.1
2017-Sep-12 16:54N 19°12' W 096°07'1 1.4
2017-Sep-12 16:30N 19°12' W 096°08'3 6.2
2017-Sep-12 15:59N 19°12' W 096°04'3 6.6
2017-Sep-12 15:29N 19°12' W 096°08'1 1.3
2017-Sep-12 15:00N 19°12' W 096°08'0 0.4
2017-Sep-12 14:30N 19°13' W 096°08'1 1.7
2017-Sep-12 14:00N 19°12' W 096°08'2 4.7
2017-Sep-12 13:30N 19°12' W 096°05'1 2.6
2017-Sep-12 13:00N 19°12' W 096°04'1 1.3
2017-Sep-12 12:29N 19°11' W 096°03'2 3.7
2017-Sep-12 12:00N 19°12' W 096°05'3 5.2
2017-Sep-12 11:30N 19°12' W 096°08'0 0.0
2017-Sep-12 11:00N 19°12' W 096°08'0 0.6
2017-Sep-12 10:29N 19°12' W 096°08'0 0.0
2017-Sep-12 09:59N 19°12' W 096°08'0 0.0
2017-Sep-12 09:29N 19°12' W 096°08'0 0.0
2017-Sep-12 08:59N 19°12' W 096°08'0 0.0
2017-Sep-12 08:26N 19°12' W 096°08'0 0.0
2017-Sep-12 07:59N 19°12' W 096°08'0 0.0
2017-Sep-12 07:29N 19°12' W 096°08'0 0.0
2017-Sep-12 06:59N 19°12' W 096°08'0 0.0
2017-Sep-12 06:29N 19°12' W 096°08'0 0.0
2017-Sep-12 05:56N 19°12' W 096°08'0 0.0
2017-Sep-12 05:29N 19°12' W 096°08'0 0.0
2017-Sep-12 04:59N 19°12' W 096°08'0 0.0
2017-Sep-12 04:29N 19°12' W 096°08'0 0.0
2017-Sep-12 03:59N 19°12' W 096°08'0 0.0
2017-Sep-12 03:26N 19°12' W 096°08'0 0.0
2017-Sep-12 02:53N 19°12' W 096°08'0 0.0
2017-Sep-12 02:29N 19°12' W 096°08'0 0.0
2017-Sep-12 01:59N 19°12' W 096°08'  
Track history (hours):
 
Tides and Currents Weather Stations Pressure Air Temp Water Temp Dewpoint Dewpoint Depression Visibility Wind Speed Wind Dir Waves Ship Positions

Tom Car

Last reported at 2017-Sep-22 01:57 UTC. Time now 2017-Sep-22 20:49 UTC.
Position N 19°12' W 096°08'.

Length 10 m.

Type: Pilot. MMSI: 345030093.

Date/timePositionNaut miles runAvg speedWind from/ knotsBaromVisibWave heightAir tempDewpointWater temp
2017-Sep-22 01:57N 19°12' W 096°08'0 0.7
2017-Sep-22 01:30N 19°12' W 096°08'0 0.0
2017-Sep-22 01:00N 19°12' W 096°08'0 0.0
2017-Sep-22 00:27N 19°12' W 096°08'0 0.0
2017-Sep-22 00:00N 19°12' W 096°08'0 0.0
2017-Sep-21 23:28N 19°12' W 096°08'0 0.0
2017-Sep-21 23:00N 19°12' W 096°08'0 0.0
2017-Sep-21 22:30N 19°12' W 096°08'0 0.0
2017-Sep-21 22:00N 19°12' W 096°08'0 0.0
2017-Sep-21 21:30N 19°12' W 096°08'0 0.0
2017-Sep-21 20:57N 19°12' W 096°08'0 0.0
2017-Sep-21 20:27N 19°12' W 096°08'0 0.0
2017-Sep-21 20:00N 19°12' W 096°08'0 0.0
2017-Sep-21 19:30N 19°12' W 096°08'0 0.0
2017-Sep-21 18:57N 19°12' W 096°08'0 0.0
2017-Sep-21 18:30N 19°12' W 096°08'0 0.0
2017-Sep-21 18:00N 19°12' W 096°08'0 0.0
2017-Sep-21 17:30N 19°12' W 096°08'0 0.0
2017-Sep-21 17:00N 19°12' W 096°08'0 0.0
2017-Sep-21 16:30N 19°12' W 096°08'0 0.0
2017-Sep-21 16:00N 19°12' W 096°08'0 0.0
2017-Sep-21 15:30N 19°12' W 096°08'0 0.0
2017-Sep-21 15:00N 19°12' W 096°08'0 0.0
2017-Sep-21 14:30N 19°12' W 096°08'0 0.0
2017-Sep-21 14:01N 19°12' W 096°08'0 0.0
2017-Sep-21 13:30N 19°12' W 096°08'0 0.0
2017-Sep-21 13:00N 19°12' W 096°08'0 0.0
2017-Sep-21 12:30N 19°12' W 096°08'1 1.4
2017-Sep-21 11:58N 19°13' W 096°08'1 1.0
2017-Sep-21 11:29N 19°12' W 096°08'4 7.8
2017-Sep-21 11:00N 19°11' W 096°04'4 6.8
2017-Sep-21 10:28N 19°12' W 096°08'0 0.0
2017-Sep-21 09:58N 19°12' W 096°08'0 0.0
2017-Sep-21 09:28N 19°12' W 096°08'0 0.0
2017-Sep-21 08:58N 19°12' W 096°08'0 0.0
2017-Sep-21 08:28N 19°12' W 096°08'0 0.0
2017-Sep-21 07:58N 19°12' W 096°08'0 0.0
2017-Sep-21 07:28N 19°12' W 096°08'0 0.0
2017-Sep-21 06:46N 19°12' W 096°08'0 0.0
2017-Sep-21 06:28N 19°12' W 096°08'0 0.0
2017-Sep-21 05:58N 19°12' W 096°08'0 0.0
2017-Sep-21 05:25N 19°12' W 096°08'0 0.0
2017-Sep-21 04:58N 19°12' W 096°08'0 0.0
2017-Sep-21 04:28N 19°12' W 096°08'0 0.0
2017-Sep-21 03:58N 19°12' W 096°08'0 0.0
2017-Sep-21 03:28N 19°12' W 096°08'0 0.0
2017-Sep-21 02:58N 19°12' W 096°08'1 1.9
2017-Sep-21 02:29N 19°13' W 096°08'1 1.8
2017-Sep-21 01:59N 19°12' W 096°08'0 0.0
2017-Sep-21 01:29N 19°12' W 096°08'0 0.0
2017-Sep-21 00:56N 19°12' W 096°08'0 0.0
2017-Sep-21 00:26N 19°12' W 096°08'3 5.8
2017-Sep-21 00:00N 19°12' W 096°05'2 4.8
2017-Sep-20 23:30N 19°12' W 096°08'0 0.5
2017-Sep-20 23:00N 19°12' W 096°08'0 0.4
2017-Sep-20 22:30N 19°12' W 096°08'1 1.3
2017-Sep-20 22:00N 19°12' W 096°08'1 1.3
2017-Sep-20 21:30N 19°12' W 096°08'4 7.1
2017-Sep-20 21:00N 19°11' W 096°04'4 6.6
2017-Sep-20 20:28N 19°12' W 096°08'0 0.0
2017-Sep-20 19:58N 19°12' W 096°08'0 0.0
2017-Sep-20 19:25N 19°12' W 096°08'0 0.0
2017-Sep-20 18:58N 19°12' W 096°08'0 0.0
2017-Sep-20 18:30N 19°12' W 096°08'2 4.1
2017-Sep-20 18:00N 19°12' W 096°06'2 3.9
2017-Sep-20 17:30N 19°12' W 096°08'0 0.5
2017-Sep-20 16:58N 19°12' W 096°08'0 0.0
2017-Sep-20 16:28N 19°12' W 096°08'3 0.5
2017-Sep-20 10:04N 19°11' W 096°04'0 4.8
2017-Sep-20 10:00N 19°12' W 096°05'3 5.5
2017-Sep-20 09:28N 19°12' W 096°08'0 0.0
2017-Sep-20 08:58N 19°12' W 096°08'0 0.0
2017-Sep-20 08:28N 19°12' W 096°08'0 0.0
2017-Sep-20 07:58N 19°12' W 096°08'0 0.0
2017-Sep-20 07:28N 19°12' W 096°08'0 0.0
2017-Sep-20 07:01N 19°12' W 096°08'0 0.0
2017-Sep-20 06:31N 19°12' W 096°08'0 0.0
2017-Sep-20 06:01N 19°12' W 096°08'0 0.0
2017-Sep-20 05:28N 19°12' W 096°08'0 0.0
2017-Sep-20 04:58N 19°12' W 096°08'0 0.0
2017-Sep-20 04:25N 19°12' W 096°08'1 1.3
2017-Sep-20 04:00N 19°12' W 096°07'1 1.8
2017-Sep-20 03:30N 19°12' W 096°06'2 3.0
2017-Sep-20 03:00N 19°12' W 096°08'0 0.4
2017-Sep-20 02:27N 19°12' W 096°08'0 0.0
2017-Sep-20 01:54N 19°12' W 096°08'0 0.0
2017-Sep-20 01:30N 19°12' W 096°08'0 0.0
2017-Sep-20 01:00N 19°12' W 096°08'0 0.0
2017-Sep-20 00:30N 19°12' W 096°08'0 0.0
2017-Sep-20 00:00N 19°12' W 096°08'0 0.0
2017-Sep-19 23:30N 19°12' W 096°08'4 6.8
2017-Sep-19 22:59N 19°11' W 096°04'3 6.5
2017-Sep-19 22:30N 19°12' W 096°07'0 0.8
2017-Sep-19 21:59N 19°12' W 096°08'2 3.7
2017-Sep-19 21:30N 19°12' W 096°06'1 2.7
2017-Sep-19 21:00N 19°12' W 096°07'1 1.6
2017-Sep-19 20:30N 19°12' W 096°08'1 1.1
2017-Sep-19 19:59N 19°12' W 096°08'0 0.0
2017-Sep-19 19:29N 19°12' W 096°08'0 0.0
2017-Sep-19 18:59N 19°12' W 096°08'0 0.0
2017-Sep-19 18:29N 19°12' W 096°08'0 0.0
2017-Sep-19 17:59N 19°12' W 096°08'0 0.0
2017-Sep-19 17:29N 19°12' W 096°08'0 0.0
2017-Sep-19 16:59N 19°12' W 096°08'0 0.0
2017-Sep-19 16:29N 19°12' W 096°08'0 0.0
2017-Sep-19 15:53N 19°12' W 096°08'0 0.0
2017-Sep-19 15:29N 19°12' W 096°08'0 0.0
2017-Sep-19 14:59N 19°12' W 096°08'0 0.0
2017-Sep-19 14:29N 19°12' W 096°08'0 0.0
2017-Sep-19 13:59N 19°12' W 096°08'0 0.6
2017-Sep-19 13:29N 19°12' W 096°08'0 0.0
2017-Sep-19 12:59N 19°12' W 096°08'0 0.0
2017-Sep-19 12:29N 19°12' W 096°08'0 0.0
2017-Sep-19 11:53N 19°12' W 096°08'0 0.0
2017-Sep-19 11:29N 19°12' W 096°08'0 0.0
2017-Sep-19 10:59N 19°12' W 096°08'0 0.0
2017-Sep-19 10:29N 19°12' W 096°08'0 0.0
2017-Sep-19 09:59N 19°12' W 096°08'0 0.0
2017-Sep-19 09:29N 19°12' W 096°08'0 0.0
2017-Sep-19 08:59N 19°12' W 096°08'0 0.0
2017-Sep-19 08:29N 19°12' W 096°08'0 0.0
2017-Sep-19 07:59N 19°12' W 096°08'0 0.0
2017-Sep-19 07:29N 19°12' W 096°08'0 0.0
2017-Sep-19 06:59N 19°12' W 096°08'0 0.0
2017-Sep-19 06:29N 19°12' W 096°08'1 1.9
2017-Sep-19 06:00N 19°12' W 096°07'2 3.7
2017-Sep-19 05:30N 19°12' W 096°05'2 4.6
2017-Sep-19 04:58N 19°12' W 096°08'0 0.5
2017-Sep-19 04:30N 19°12' W 096°08'0 0.0
2017-Sep-19 04:00N 19°12' W 096°08'3 5.3
2017-Sep-19 03:30N 19°12' W 096°05'3 5.3
2017-Sep-19 03:00N 19°12' W 096°08'0 0.7
2017-Sep-19 02:28N 19°13' W 096°08'1 1.4
2017-Sep-19 01:58N 19°12' W 096°08'0 0.0
2017-Sep-19 01:28N 19°12' W 096°08'0 0.0
2017-Sep-19 00:58N 19°12' W 096°08'0 0.0
2017-Sep-19 00:29N 19°12' W 096°08'3 6.5
2017-Sep-19 00:00N 19°12' W 096°05'0 0.7
2017-Sep-18 23:29N 19°12' W 096°05'2 3.9
2017-Sep-18 23:00N 19°12' W 096°07'1 2.8
2017-Sep-18 22:30N 19°12' W 096°08'0 0.7
2017-Sep-18 21:59N 19°12' W 096°08'0 0.0
2017-Sep-18 21:29N 19°12' W 096°08'0 0.0
2017-Sep-18 20:59N 19°12' W 096°08'0 0.0
2017-Sep-18 20:29N 19°12' W 096°08'0 0.0
2017-Sep-18 19:59N 19°12' W 096°08'0 0.7
2017-Sep-18 19:30N 19°12' W 096°08'0 0.6
2017-Sep-18 19:00N 19°12' W 096°08'0 0.1
2017-Sep-18 18:31N 19°12' W 096°08'0 0.1
2017-Sep-18 17:59N 19°12' W 096°08'0 0.0
2017-Sep-18 17:29N 19°12' W 096°08'0 0.0
2017-Sep-18 16:59N 19°12' W 096°08'0 0.0
2017-Sep-18 16:29N 19°12' W 096°08'1 1.1
2017-Sep-18 15:59N 19°12' W 096°08'0 0.9
2017-Sep-18 15:30N 19°12' W 096°08'2 4.3
2017-Sep-18 15:00N 19°12' W 096°06'2 3.6
2017-Sep-18 14:27N 19°12' W 096°08'0 0.0
2017-Sep-18 14:00N 19°12' W 096°08'0 0.0
2017-Sep-18 13:30N 19°12' W 096°08'0 0.0
2017-Sep-18 12:57N 19°12' W 096°08'0 0.0
2017-Sep-18 12:30N 19°12' W 096°08'1 1.1
2017-Sep-18 12:00N 19°12' W 096°07'0 0.2
2017-Sep-18 11:30N 19°12' W 096°07'1 1.0
2017-Sep-18 10:58N 19°12' W 096°08'3 7.2
2017-Sep-18 10:30N 19°11' W 096°04'3 6.2
2017-Sep-18 09:59N 19°12' W 096°08'0 0.0
2017-Sep-18 09:29N 19°12' W 096°08'0 0.0
2017-Sep-18 08:56N 19°12' W 096°08'0 0.0
2017-Sep-18 08:26N 19°12' W 096°08'1 2.0
2017-Sep-18 07:56N 19°13' W 096°08'0 0.3
2017-Sep-18 07:28N 19°13' W 096°08'3 5.5
2017-Sep-18 06:58N 19°12' W 096°06'0 0.6
2017-Sep-18 06:30N 19°12' W 096°06'2 3.7
2017-Sep-18 06:00N 19°12' W 096°08'0 0.0
2017-Sep-18 05:30N 19°12' W 096°08'0 0.0
2017-Sep-18 04:58N 19°12' W 096°08'0 0.0
2017-Sep-18 04:25N 19°12' W 096°08'0 0.0
2017-Sep-18 03:52N 19°12' W 096°08'0 0.0
2017-Sep-18 03:28N 19°12' W 096°08'0 0.0
2017-Sep-18 02:58N 19°12' W 096°08'0 0.0
2017-Sep-18 02:28N 19°12' W 096°08'0 0.0
2017-Sep-18 01:58N 19°12' W 096°08'0 0.0
2017-Sep-18 01:28N 19°12' W 096°08'0 0.0
2017-Sep-18 00:58N 19°12' W 096°08'0 0.0
2017-Sep-18 00:28N 19°12' W 096°08'0 0.0
2017-Sep-17 23:58N 19°12' W 096°08'0 0.0
2017-Sep-17 23:28N 19°12' W 096°08'0 0.0
2017-Sep-17 22:55N 19°12' W 096°08'0 0.0
2017-Sep-17 22:28N 19°12' W 096°08'0 0.0
2017-Sep-17 21:58N 19°12' W 096°08'0 0.0
2017-Sep-17 21:28N 19°12' W 096°08'0 0.0
2017-Sep-17 20:55N 19°12' W 096°08'0 0.0
2017-Sep-17 20:25N 19°12' W 096°08'0 0.0
2017-Sep-17 19:58N 19°12' W 096°08'0 0.0
2017-Sep-17 19:28N 19°12' W 096°08'0 0.0
2017-Sep-17 18:58N 19°12' W 096°08'1 2.3
2017-Sep-17 18:31N 19°12' W 096°07'0 0.4
2017-Sep-17 18:00N 19°12' W 096°06'1 2.8
2017-Sep-17 17:29N 19°12' W 096°08'0 0.6
2017-Sep-17 17:00N 19°12' W 096°08'0 0.0
2017-Sep-17 16:30N 19°12' W 096°08'0 0.0
2017-Sep-17 16:00N 19°12' W 096°08'0 0.0
2017-Sep-17 15:30N 19°12' W 096°08'0 0.0
2017-Sep-17 14:59N 19°12' W 096°08'0 0.0
2017-Sep-17 14:29N 19°12' W 096°08'0 0.0
2017-Sep-17 13:59N 19°12' W 096°08'0 0.5
2017-Sep-17 13:28N 19°12' W 096°08'0 0.0
2017-Sep-17 12:58N 19°12' W 096°08'0 0.0
2017-Sep-17 12:28N 19°12' W 096°08'0 0.0
2017-Sep-17 11:55N 19°12' W 096°08'0 0.0
2017-Sep-17 11:28N 19°12' W 096°08'0 0.0
2017-Sep-17 10:55N 19°12' W 096°08'0 0.0
2017-Sep-17 10:28N 19°12' W 096°08'0 0.0
2017-Sep-17 09:58N 19°12' W 096°08'0 0.0
2017-Sep-17 09:28N 19°12' W 096°08'0 0.0
2017-Sep-17 08:58N 19°12' W 096°08'0 0.0
2017-Sep-17 08:28N 19°12' W 096°08'0 0.0
2017-Sep-17 07:58N 19°12' W 096°08'0 0.0
2017-Sep-17 07:25N 19°12' W 096°08'0 0.0
2017-Sep-17 06:58N 19°12' W 096°08'0 0.0
2017-Sep-17 06:28N 19°12' W 096°08'1 2.3
2017-Sep-17 06:00N 19°12' W 096°07'1 0.2
2017-Sep-16 23:57N 19°12' W 096°08'0 0.0
2017-Sep-16 23:30N 19°12' W 096°08'0 0.0
2017-Sep-16 23:00N 19°12' W 096°08'0 0.0
2017-Sep-16 22:30N 19°12' W 096°08'0 0.0
2017-Sep-16 21:57N 19°12' W 096°08'0 0.0
2017-Sep-16 21:30N 19°12' W 096°08'0 0.0
2017-Sep-16 21:00N 19°12' W 096°08'0 0.0
2017-Sep-16 20:30N 19°12' W 096°08'1 1.7
2017-Sep-16 20:00N 19°12' W 096°07'1 1.5
2017-Sep-16 19:28N 19°12' W 096°08'0 0.0
2017-Sep-16 18:55N 19°12' W 096°08'0 0.0
2017-Sep-16 18:28N 19°12' W 096°08'0 0.0
2017-Sep-16 17:58N 19°12' W 096°08'0 0.0
2017-Sep-16 17:28N 19°12' W 096°08'0 0.0
2017-Sep-16 16:58N 19°12' W 096°08'0 0.0
2017-Sep-16 16:28N 19°12' W 096°08'0 0.0
2017-Sep-16 15:58N 19°12' W 096°08'2 4.9
2017-Sep-16 15:29N 19°12' W 096°05'3 5.4
2017-Sep-16 15:00N 19°12' W 096°08'0 0.6
2017-Sep-16 14:28N 19°12' W 096°08'0 0.0
2017-Sep-16 13:58N 19°12' W 096°08'0 0.0
2017-Sep-16 13:28N 19°12' W 096°08'1 2.5
2017-Sep-16 13:00N 19°12' W 096°07'0 1.0
2017-Sep-16 12:30N 19°12' W 096°07'1 1.7
2017-Sep-16 11:59N 19°12' W 096°08'0 0.6
2017-Sep-16 11:29N 19°12' W 096°08'0 0.0
2017-Sep-16 10:59N 19°12' W 096°08'0 0.0
2017-Sep-16 10:26N 19°12' W 096°08'0 0.0
2017-Sep-16 09:56N 19°12' W 096°08'0 0.0
2017-Sep-16 09:29N 19°12' W 096°08'0 0.0
2017-Sep-16 08:59N 19°12' W 096°08'0 0.0
2017-Sep-16 08:29N 19°12' W 096°08'0 0.0
2017-Sep-16 07:59N 19°12' W 096°08'0 0.0
2017-Sep-16 07:26N 19°12' W 096°08'0 0.0
2017-Sep-16 06:59N 19°12' W 096°08'0 0.0
2017-Sep-16 06:29N 19°12' W 096°08'0 0.0
2017-Sep-16 05:59N 19°12' W 096°08'0 0.0
2017-Sep-16 05:23N 19°12' W 096°08'0 0.0
2017-Sep-16 05:00N 19°12' W 096°08'2 3.4
2017-Sep-16 04:29N 19°12' W 096°06'1 2.6
2017-Sep-16 03:54N 19°12' W 096°07'0 1.1
2017-Sep-16 03:30N 19°12' W 096°08'0 0.0
2017-Sep-16 03:00N 19°12' W 096°08'0 0.0
2017-Sep-16 02:30N 19°12' W 096°08'0 0.0
2017-Sep-16 02:00N 19°12' W 096°08'0 0.0
2017-Sep-16 01:30N 19°12' W 096°08'0 0.0
2017-Sep-16 01:00N 19°12' W 096°08'0 0.0
2017-Sep-16 00:30N 19°12' W 096°08'0 0.0
2017-Sep-15 23:58N 19°12' W 096°08'0 0.8
2017-Sep-15 23:30N 19°12' W 096°08'0 0.6
2017-Sep-15 22:58N 19°12' W 096°08'2 3.3
2017-Sep-15 22:30N 19°12' W 096°06'1 1.4
2017-Sep-15 21:59N 19°12' W 096°05'0 1.0
2017-Sep-15 21:30N 19°12' W 096°05'3 5.4
2017-Sep-15 21:00N 19°12' W 096°08'1 1.2
2017-Sep-15 20:29N 19°13' W 096°08'1 1.4
2017-Sep-15 19:59N 19°12' W 096°08'0 0.6
2017-Sep-15 19:27N 19°12' W 096°08'1 1.4
2017-Sep-15 18:58N 19°13' W 096°08'1 2.0
2017-Sep-15 18:30N 19°12' W 096°08'3 6.4
2017-Sep-15 18:00N 19°11' W 096°04'3 6.4
2017-Sep-15 17:30N 19°12' W 096°08'0 0.1
2017-Sep-15 16:58N 19°12' W 096°08'0 0.0
2017-Sep-15 16:30N 19°12' W 096°08'0 0.0
2017-Sep-15 16:00N 19°12' W 096°08'3 5.7
2017-Sep-15 15:30N 19°12' W 096°05'3 6.0
2017-Sep-15 15:00N 19°12' W 096°08'0 0.6
2017-Sep-15 14:26N 19°12' W 096°08'0 0.0
2017-Sep-15 13:59N 19°12' W 096°08'0 0.0
2017-Sep-15 13:29N 19°12' W 096°08'0 0.6
2017-Sep-15 12:59N 19°12' W 096°08'1 1.2
2017-Sep-15 12:28N 19°13' W 096°08'1 1.3
2017-Sep-15 11:57N 19°12' W 096°08'3 6.7
2017-Sep-15 11:30N 19°12' W 096°05'1 2.5
2017-Sep-15 11:00N 19°12' W 096°06'2 3.1
2017-Sep-15 10:30N 19°12' W 096°08'0 0.0
2017-Sep-15 10:00N 19°12' W 096°08'0 0.0
2017-Sep-15 09:27N 19°12' W 096°08'0 0.0
2017-Sep-15 09:00N 19°12' W 096°08'0 0.0
2017-Sep-15 08:27N 19°12' W 096°08'0 0.0
2017-Sep-15 08:00N 19°12' W 096°08'0 0.0
2017-Sep-15 07:27N 19°12' W 096°08'0 0.0
2017-Sep-15 07:00N 19°12' W 096°08'0 0.0
2017-Sep-15 06:30N 19°12' W 096°08'0 0.0
2017-Sep-15 05:54N 19°12' W 096°08'0 0.0
2017-Sep-15 05:27N 19°12' W 096°08'0 0.0
2017-Sep-15 05:00N 19°12' W 096°08'0 0.0
2017-Sep-15 04:30N 19°12' W 096°08'0 0.0
2017-Sep-15 03:57N 19°12' W 096°08'1 1.2
2017-Sep-15 03:28N 19°12' W 096°07'0 0.3
2017-Sep-15 03:00N 19°12' W 096°07'0 0.7
2017-Sep-15 02:30N 19°12' W 096°08'1 1.6
2017-Sep-15 02:00N 19°12' W 096°07'1 2.4
2017-Sep-15 01:30N 19°13' W 096°08'1 1.6
2017-Sep-15 01:00N 19°12' W 096°08'0 0.0
2017-Sep-15 00:30N 19°12' W 096°08'0 0.0
2017-Sep-15 00:00N 19°12' W 096°08'0 0.0
2017-Sep-14 23:30N 19°12' W 096°08'0 0.0
2017-Sep-14 23:00N 19°12' W 096°08'0 0.0
2017-Sep-14 22:30N 19°12' W 096°08'1 1.1
2017-Sep-14 21:55N 19°12' W 096°08'1 1.6
2017-Sep-14 21:30N 19°12' W 096°08'4 7.0
2017-Sep-14 21:00N 19°11' W 096°04'4 7.1
2017-Sep-14 20:28N 19°12' W 096°08'0 0.0
2017-Sep-14 19:58N 19°12' W 096°08'0 0.0
2017-Sep-14 19:28N 19°12' W 096°08'4 0.4
2017-Sep-14 09:56N 19°11' W 096°04'4 8.6
2017-Sep-14 09:29N 19°12' W 096°08'0 0.0
2017-Sep-14 08:53N 19°12' W 096°08'0 0.0
2017-Sep-14 08:29N 19°12' W 096°08'0 0.0
2017-Sep-14 07:56N 19°12' W 096°08'0 0.0
2017-Sep-14 07:29N 19°12' W 096°08'0 0.0
2017-Sep-14 06:56N 19°12' W 096°08'0 0.0
2017-Sep-14 06:29N 19°12' W 096°08'0 0.0
2017-Sep-14 05:59N 19°12' W 096°08'0 0.0
2017-Sep-14 05:26N 19°12' W 096°08'0 0.0
2017-Sep-14 04:59N 19°12' W 096°08'0 0.0
2017-Sep-14 04:26N 19°12' W 096°08'0 0.0
2017-Sep-14 03:56N 19°12' W 096°08'0 0.0
2017-Sep-14 03:23N 19°12' W 096°08'0 0.0
2017-Sep-14 02:59N 19°12' W 096°08'0 0.0
2017-Sep-14 02:29N 19°12' W 096°08'0 0.0
2017-Sep-14 01:59N 19°12' W 096°08'0 0.9
2017-Sep-14 01:30N 19°12' W 096°08'0 0.8
2017-Sep-14 00:58N 19°12' W 096°08'3 7.3
2017-Sep-14 00:30N 19°11' W 096°04'3 6.9
2017-Sep-14 00:00N 19°12' W 096°08'2 3.8
2017-Sep-13 23:30N 19°12' W 096°06'2 3.7
2017-Sep-13 23:00N 19°12' W 096°08'0 0.0
2017-Sep-13 22:27N 19°12' W 096°08'0 0.0
2017-Sep-13 22:00N 19°12' W 096°08'0 0.0
2017-Sep-13 21:30N 19°12' W 096°08'0 0.0
2017-Sep-13 21:00N 19°12' W 096°08'0 0.6
2017-Sep-13 20:28N 19°12' W 096°08'0 0.5
2017-Sep-13 19:54N 19°12' W 096°08'0 0.0
2017-Sep-13 19:30N 19°12' W 096°08'3 6.5
2017-Sep-13 19:00N 19°12' W 096°04'3 5.1
2017-Sep-13 18:30N 19°12' W 096°07'1 1.4
2017-Sep-13 17:58N 19°12' W 096°08'2 4.7
2017-Sep-13 17:30N 19°12' W 096°05'2 4.0
2017-Sep-13 16:58N 19°12' W 096°08'0 0.6
2017-Sep-13 16:30N 19°12' W 096°08'3 5.4
2017-Sep-13 15:58N 19°12' W 096°05'3 6.3
2017-Sep-13 15:30N 19°12' W 096°08'0 0.0
2017-Sep-13 15:00N 19°12' W 096°08'0 0.0
2017-Sep-13 14:29N 19°12' W 096°08'0 0.0
2017-Sep-13 13:59N 19°12' W 096°08'0 0.0
2017-Sep-13 13:29N 19°12' W 096°08'1 2.0
2017-Sep-13 13:00N 19°12' W 096°07'0 0.5
2017-Sep-13 12:29N 19°12' W 096°07'1 2.5
2017-Sep-13 12:00N 19°12' W 096°08'0 0.1
2017-Sep-13 11:25N 19°12' W 096°08'0 0.0
2017-Sep-13 10:58N 19°12' W 096°08'0 0.6
2017-Sep-13 10:28N 19°12' W 096°08'0 0.7
2017-Sep-13 09:59N 19°12' W 096°08'0 0.0
2017-Sep-13 09:29N 19°12' W 096°08'0 0.5
2017-Sep-13 08:53N 19°12' W 096°08'2 6.2
2017-Sep-13 08:30N 19°12' W 096°05'1 1.7
2017-Sep-13 08:00N 19°12' W 096°06'1 2.4
2017-Sep-13 07:25N 19°12' W 096°08'0 0.0
2017-Sep-13 06:55N 19°12' W 096°08'0 0.0
2017-Sep-13 06:28N 19°12' W 096°08'0 0.0
2017-Sep-13 05:58N 19°12' W 096°08'0 0.0
2017-Sep-13 05:28N 19°12' W 096°08'0 0.0
2017-Sep-13 04:55N 19°12' W 096°08'0 0.0
2017-Sep-13 04:25N 19°12' W 096°08'0 0.0
2017-Sep-13 03:55N 19°12' W 096°08'0 0.0
2017-Sep-13 03:22N 19°12' W 096°08'0 0.0
2017-Sep-13 02:58N 19°12' W 096°08'0 0.0
2017-Sep-13 02:28N 19°12' W 096°08'0 0.0
2017-Sep-13 01:58N 19°12' W 096°08'0 0.0
2017-Sep-13 01:22N 19°12' W 096°08'0 0.0
2017-Sep-13 00:58N 19°12' W 096°08'0 0.0
2017-Sep-13 00:28N 19°12' W 096°08'0 0.0
2017-Sep-12 23:58N 19°12' W 096°08'0 0.0
2017-Sep-12 23:28N 19°12' W 096°08'0 0.0
2017-Sep-12 22:58N 19°12' W 096°08'0 0.0
2017-Sep-12 22:28N 19°12' W 096°08'0 0.0
2017-Sep-12 21:58N 19°12' W 096°08'0 0.0
2017-Sep-12 21:28N 19°12' W 096°08'0 0.0
2017-Sep-12 20:58N 19°12' W 096°08'0 0.0
2017-Sep-12 20:28N 19°12' W 096°08'0 0.0
2017-Sep-12 19:59N 19°12' W 096°08'0 0.4
2017-Sep-12 19:19N 19°12' W 096°08'0 0.0
2017-Sep-12 18:58N 19°12' W 096°08'0 0.0
2017-Sep-12 18:28N 19°12' W 096°08'0 0.0
2017-Sep-12 17:58N 19°12' W 096°08'0 0.0
2017-Sep-12 17:24N 19°12' W 096°08'1 1.1
2017-Sep-12 16:54N 19°12' W 096°07'1 1.4
2017-Sep-12 16:30N 19°12' W 096°08'3 6.2
2017-Sep-12 15:59N 19°12' W 096°04'3 6.6
2017-Sep-12 15:29N 19°12' W 096°08'1 1.3
2017-Sep-12 15:00N 19°12' W 096°08'0 0.4
2017-Sep-12 14:30N 19°13' W 096°08'1 1.7
2017-Sep-12 14:00N 19°12' W 096°08'2 4.7
2017-Sep-12 13:30N 19°12' W 096°05'1 2.6
2017-Sep-12 13:00N 19°12' W 096°04'1 1.3
2017-Sep-12 12:29N 19°11' W 096°03'2 3.7
2017-Sep-12 12:00N 19°12' W 096°05'3 5.2
2017-Sep-12 11:30N 19°12' W 096°08'0 0.0
2017-Sep-12 11:00N 19°12' W 096°08'0 0.6
2017-Sep-12 10:29N 19°12' W 096°08'0 0.0
2017-Sep-12 09:59N 19°12' W 096°08'0 0.0
2017-Sep-12 09:29N 19°12' W 096°08'0 0.0
2017-Sep-12 08:59N 19°12' W 096°08'0 0.0
2017-Sep-12 08:26N 19°12' W 096°08'0 0.0
2017-Sep-12 07:59N 19°12' W 096°08'0 0.0
2017-Sep-12 07:29N 19°12' W 096°08'0 0.0
2017-Sep-12 06:59N 19°12' W 096°08'0 0.0
2017-Sep-12 06:29N 19°12' W 096°08'0 0.0
2017-Sep-12 05:56N 19°12' W 096°08'0 0.0
2017-Sep-12 05:29N 19°12' W 096°08'0 0.0
2017-Sep-12 04:59N 19°12' W 096°08'0 0.0
2017-Sep-12 04:29N 19°12' W 096°08'0 0.0
2017-Sep-12 03:59N 19°12' W 096°08'0 0.0
2017-Sep-12 03:26N 19°12' W 096°08'0 0.0
2017-Sep-12 02:53N 19°12' W 096°08'0 0.0
2017-Sep-12 02:29N 19°12' W 096°08'0 0.0
2017-Sep-12 01:59N 19°12' W 096°08'  

Dump ship's entire track history